createdAt,value
2019-05-06T00:02:24.550Z,4.90
2019-05-06T00:04:56.271Z,4.90
2019-05-06T00:07:27.773Z,4.90
2019-05-06T00:09:59.235Z,4.80
2019-05-06T00:12:33.622Z,4.80
2019-05-06T00:15:05.990Z,4.80
2019-05-06T00:17:37.510Z,4.70
2019-05-06T00:20:09.188Z,4.70
2019-05-06T00:22:40.593Z,4.70
2019-05-06T00:25:16.889Z,4.70
2019-05-06T00:28:06.445Z,4.70
2019-05-06T00:30:39.047Z,4.70
2019-05-06T00:33:10.536Z,4.60
2019-05-06T00:35:42.124Z,4.60
2019-05-06T00:38:13.988Z,4.60
2019-05-06T00:40:46.866Z,4.60
2019-05-06T00:43:18.249Z,4.50
2019-05-06T00:45:49.833Z,4.50
2019-05-06T00:48:21.202Z,4.50
2019-05-06T00:50:53.580Z,4.50
2019-05-06T00:53:26.927Z,4.40
2019-05-06T00:55:58.396Z,4.40
2019-05-06T00:58:31.340Z,4.40
2019-05-06T01:01:04.706Z,4.40
2019-05-06T01:03:44.256Z,4.40
2019-05-06T01:06:15.837Z,4.40
2019-05-06T01:08:47.185Z,4.30
2019-05-06T01:11:18.622Z,4.30
2019-05-06T01:13:59.303Z,4.30
2019-05-06T01:16:30.757Z,4.20
2019-05-06T01:19:02.150Z,4.20
2019-05-06T01:21:34.601Z,4.20
2019-05-06T01:24:06.031Z,4.10
2019-05-06T01:26:37.341Z,4.10
2019-05-06T01:29:08.727Z,4.10
2019-05-06T01:31:43.230Z,4.10
2019-05-06T01:34:13.845Z,4.10
2019-05-06T01:36:45.892Z,4.10
2019-05-06T01:39:36.679Z,4.00
2019-05-06T01:42:21.340Z,4.00
2019-05-06T01:44:54.951Z,4.00
2019-05-06T01:47:26.282Z,4.00
2019-05-06T01:49:57.994Z,3.90
2019-05-06T01:52:29.672Z,3.90
2019-05-06T01:55:00.988Z,3.90
2019-05-06T01:57:33.774Z,3.90
2019-05-06T02:00:07.474Z,3.90
2019-05-06T02:02:40.435Z,3.80
2019-05-06T02:05:13.819Z,3.80
2019-05-06T02:07:45.953Z,3.80
2019-05-06T02:10:17.287Z,3.70
2019-05-06T02:12:48.793Z,3.70
2019-05-06T02:15:20.850Z,3.70
2019-05-06T02:17:52.298Z,3.70
2019-05-06T02:20:24.637Z,3.70
2019-05-06T02:23:04.209Z,3.60
2019-05-06T02:25:45.535Z,3.60
2019-05-06T02:28:18.370Z,3.60
2019-05-06T02:31:14.989Z,3.50
2019-05-06T02:34:05.424Z,3.50
2019-05-06T02:37:02.029Z,3.50
2019-05-06T02:39:34.135Z,3.50
2019-05-06T02:42:08.561Z,3.50
2019-05-06T02:44:40.155Z,3.50
2019-05-06T02:47:45.854Z,3.40
2019-05-06T02:50:20.378Z,3.40
2019-05-06T02:52:53.678Z,3.40
2019-05-06T02:55:25.005Z,3.40
2019-05-06T02:57:56.477Z,3.40
2019-05-06T03:00:28.050Z,3.40
2019-05-06T03:02:59.410Z,3.30
2019-05-06T03:05:33.285Z,3.30
2019-05-06T03:08:04.054Z,3.30
2019-05-06T03:10:39.102Z,3.30
2019-05-06T03:13:10.202Z,3.30
2019-05-06T03:15:43.832Z,3.30
2019-05-06T03:18:15.374Z,3.30
2019-05-06T03:20:58.349Z,3.30
2019-05-06T03:23:34.489Z,3.30
2019-05-06T03:26:06.666Z,3.30
2019-05-06T03:28:37.606Z,3.40
2019-05-06T03:31:08.951Z,3.50
2019-05-06T03:33:59.698Z,3.50
2019-05-06T03:36:24.189Z,3.50
2019-05-06T03:38:46.727Z,3.60
2019-05-06T03:41:18.154Z,3.60
2019-05-06T03:43:49.537Z,3.70
2019-05-06T03:46:28.888Z,3.70
2019-05-06T03:49:03.891Z,3.70
2019-05-06T03:51:36.035Z,3.80
2019-05-06T03:54:07.415Z,3.90
2019-05-06T03:56:43.140Z,4.00
2019-05-06T03:59:16.233Z,4.10
2019-05-06T04:01:47.593Z,4.20
2019-05-06T04:04:19.012Z,4.40
2019-05-06T04:06:53.820Z,4.60
2019-05-06T04:09:25.989Z,4.80
2019-05-06T04:11:58.180Z,5.10
2019-05-06T04:14:34.023Z,5.40
2019-05-06T04:17:13.234Z,5.80
2019-05-06T04:19:49.080Z,6.20
2019-05-06T04:22:26.193Z,6.50
2019-05-06T04:25:33.998Z,6.80
2019-05-06T04:28:34.176Z,7.00
2019-05-06T04:31:08.276Z,7.30
2019-05-06T04:33:39.651Z,7.50
2019-05-06T04:36:13.166Z,7.80
2019-05-06T04:38:44.346Z,8.10
2019-05-06T04:41:16.109Z,8.40
2019-05-06T04:43:47.491Z,8.80
2019-05-06T04:46:19.013Z,9.20
2019-05-06T04:48:50.230Z,9.50
2019-05-06T04:51:24.521Z,9.80
2019-05-06T04:53:54.778Z,10.10
2019-05-06T04:56:26.329Z,10.40
2019-05-06T04:58:58.598Z,10.70
2019-05-06T05:01:30.033Z,11.00
2019-05-06T05:04:03.580Z,11.20
2019-05-06T05:06:34.846Z,11.40
2019-05-06T05:09:07.334Z,11.60
2019-05-06T05:11:53.333Z,11.70
2019-05-06T05:14:33.592Z,11.80
2019-05-06T05:17:18.146Z,12.00
2019-05-06T05:19:49.824Z,12.30
2019-05-06T05:22:21.941Z,12.50
2019-05-06T05:24:55.101Z,12.80
2019-05-06T05:27:26.576Z,13.00
2019-05-06T05:29:58.064Z,13.30
2019-05-06T05:32:29.499Z,13.60
2019-05-06T05:35:02.032Z,13.80
2019-05-06T05:37:34.328Z,14.00
2019-05-06T05:40:06.734Z,14.30
2019-05-06T05:42:52.224Z,14.60
2019-05-06T05:45:23.804Z,14.80
2019-05-06T05:47:57.123Z,15.00
2019-05-06T05:50:35.288Z,15.30
2019-05-06T05:53:06.817Z,15.50
2019-05-06T05:55:38.290Z,15.70
2019-05-06T05:58:10.002Z,15.90
2019-05-06T06:00:42.580Z,16.20
2019-05-06T06:03:14.110Z,16.50
2019-05-06T06:05:45.408Z,16.80
2019-05-06T06:08:16.788Z,17.10
2019-05-06T06:10:59.453Z,17.30
2019-05-06T06:13:32.039Z,17.50
2019-05-06T06:16:23.277Z,17.80
2019-05-06T06:19:12.854Z,18.00
2019-05-06T06:21:58.300Z,18.30
2019-05-06T06:24:32.368Z,18.50
2019-05-06T06:27:04.281Z,18.70
2019-05-06T06:29:36.065Z,19.00
2019-05-06T06:32:16.289Z,19.30
2019-05-06T06:35:07.345Z,19.50
2019-05-06T06:37:52.342Z,19.60
2019-05-06T06:40:25.596Z,19.80
2019-05-06T06:43:03.128Z,20.00
2019-05-06T06:45:37.411Z,20.20
2019-05-06T06:48:09.018Z,20.40
2019-05-06T06:50:42.513Z,20.50
2019-05-06T06:53:14.344Z,20.60
2019-05-06T06:55:46.246Z,20.70
2019-05-06T06:58:37.092Z,20.80
2019-05-06T07:01:33.623Z,21.00
2019-05-06T07:04:11.269Z,21.20
2019-05-06T07:06:48.506Z,21.30
2019-05-06T07:09:19.855Z,21.40
2019-05-06T07:11:52.582Z,21.60
2019-05-06T07:14:25.012Z,21.80
2019-05-06T07:16:56.437Z,22.10
2019-05-06T07:19:33.275Z,22.10
2019-05-06T07:22:07.014Z,22.10
2019-05-06T07:24:38.150Z,22.00
2019-05-06T07:27:15.134Z,22.20
2019-05-06T07:29:48.242Z,22.30
2019-05-06T07:32:19.470Z,22.30
2019-05-06T07:34:53.092Z,22.20
2019-05-06T07:37:24.220Z,22.30
2019-05-06T07:39:55.648Z,22.50
2019-05-06T07:42:36.761Z,22.70
2019-05-06T07:45:36.789Z,22.80
2019-05-06T07:48:12.823Z,22.90
2019-05-06T07:50:43.963Z,22.90
2019-05-06T07:53:15.317Z,22.90
2019-05-06T07:55:46.939Z,22.80
2019-05-06T07:58:18.354Z,22.70
2019-05-06T08:00:49.824Z,22.60
2019-05-06T08:03:22.253Z,22.60
2019-05-06T08:05:58.679Z,22.70
2019-05-06T08:08:27.658Z,22.90
2019-05-06T08:10:59.152Z,22.70
2019-05-06T08:13:33.526Z,22.30
2019-05-06T08:16:04.958Z,21.80
2019-05-06T08:18:36.450Z,21.20
2019-05-06T08:21:16.329Z,21.10
2019-05-06T08:23:52.122Z,21.40
2019-05-06T08:26:23.371Z,21.50
2019-05-06T08:28:54.939Z,21.20
2019-05-06T08:31:26.204Z,20.80
2019-05-06T08:34:02.630Z,20.60
2019-05-06T08:36:55.774Z,20.80
2019-05-06T08:39:27.110Z,20.80
2019-05-06T08:41:58.617Z,20.60
2019-05-06T08:44:32.258Z,20.40
2019-05-06T08:47:03.406Z,20.40
2019-05-06T08:49:52.859Z,20.30
2019-05-06T08:52:27.688Z,20.20
2019-05-06T08:55:02.355Z,20.10
2019-05-06T08:57:34.771Z,20.10
2019-05-06T09:00:07.962Z,20.10
2019-05-06T09:02:39.453Z,20.20
2019-05-06T09:05:12.209Z,20.20
2019-05-06T09:07:45.299Z,20.20
2019-05-06T09:10:16.806Z,20.30
2019-05-06T09:12:48.382Z,20.50
2019-05-06T09:15:21.996Z,20.70
2019-05-06T09:17:53.425Z,20.70
2019-05-06T09:20:24.673Z,20.60
2019-05-06T09:22:55.940Z,20.50
2019-05-06T09:25:27.988Z,20.40
2019-05-06T09:28:12.968Z,20.40
2019-05-06T09:30:47.107Z,20.60
2019-05-06T09:33:22.527Z,20.70
2019-05-06T09:35:53.985Z,20.70
2019-05-06T09:38:25.507Z,20.60
2019-05-06T09:40:56.779Z,20.70
2019-05-06T09:43:28.168Z,20.90
2019-05-06T09:46:02.149Z,21.30
2019-05-06T09:48:52.778Z,21.60
2019-05-06T09:51:25.819Z,21.70
2019-05-06T09:54:12.884Z,21.90
2019-05-06T09:57:07.541Z,22.00
2019-05-06T09:59:38.877Z,21.90
2019-05-06T10:02:12.388Z,21.80
2019-05-06T10:04:43.841Z,21.70
2019-05-06T10:07:15.359Z,21.60
2019-05-06T10:09:46.893Z,21.70
2019-05-06T10:12:18.397Z,21.80
2019-05-06T10:14:49.948Z,21.70
2019-05-06T10:17:21.470Z,21.50
2019-05-06T10:19:52.915Z,21.10
2019-05-06T10:22:24.328Z,20.80
2019-05-06T10:24:55.836Z,20.30
2019-05-06T10:27:28.429Z,19.90
2019-05-06T10:30:03.461Z,19.60
2019-05-06T10:32:53.917Z,19.30
2019-05-06T10:35:29.474Z,19.30
2019-05-06T10:38:31.463Z,19.50
2019-05-06T10:41:07.715Z,19.80
2019-05-06T10:43:45.371Z,20.10
2019-05-06T10:46:16.844Z,20.20
2019-05-06T10:48:48.729Z,20.10
2019-05-06T10:51:37.383Z,20.10
2019-05-06T10:54:09.194Z,20.00
2019-05-06T10:57:07.907Z,19.80
2019-05-06T10:59:39.447Z,19.40
2019-05-06T11:02:43.016Z,19.00
2019-05-06T11:05:15.597Z,18.90
2019-05-06T11:07:48.894Z,18.90
2019-05-06T11:10:27.692Z,19.10
2019-05-06T11:12:53.846Z,19.30
2019-05-06T11:15:25.433Z,19.30
2019-05-06T11:17:56.909Z,19.30
2019-05-06T11:20:29.341Z,19.30
2019-05-06T11:23:02.064Z,19.20
2019-05-06T11:25:33.582Z,19.20
2019-05-06T11:28:09.547Z,19.20
2019-05-06T11:30:58.997Z,19.20
2019-05-06T11:33:38.075Z,19.30
2019-05-06T11:36:16.283Z,19.30
2019-05-06T11:38:48.539Z,19.20
2019-05-06T11:41:23.315Z,19.00
2019-05-06T11:43:54.346Z,18.90
2019-05-06T11:46:26.025Z,18.80
2019-05-06T11:48:57.275Z,18.70
2019-05-06T11:51:32.966Z,18.60
2019-05-06T11:54:16.459Z,18.40
2019-05-06T11:56:48.793Z,18.30
2019-05-06T11:59:12.985Z,18.10
2019-05-06T12:01:53.418Z,18.00
2019-05-06T12:04:24.527Z,17.90
2019-05-06T12:07:09.972Z,17.80
2019-05-06T12:09:28.852Z,17.80
2019-05-06T12:12:03.299Z,17.80
2019-05-06T12:14:34.966Z,17.70
2019-05-06T12:17:06.672Z,17.80
2019-05-06T12:19:37.995Z,17.90
2019-05-06T12:22:09.482Z,18.00
2019-05-06T12:24:42.873Z,18.00
2019-05-06T12:27:33.158Z,18.10
2019-05-06T12:30:05.941Z,18.10
2019-05-06T12:32:43.304Z,18.10
2019-05-06T12:35:14.561Z,18.20
2019-05-06T12:37:47.623Z,18.30
2019-05-06T12:40:20.198Z,18.40
2019-05-06T12:42:55.845Z,18.40
2019-05-06T12:45:36.848Z,18.30
2019-05-06T12:48:29.516Z,18.20
2019-05-06T12:51:03.196Z,17.90
2019-05-06T12:53:34.846Z,17.70
2019-05-06T12:56:06.499Z,17.50
2019-05-06T12:58:37.912Z,17.40
2019-05-06T13:01:13.344Z,17.30
2019-05-06T13:03:44.509Z,17.30
2019-05-06T13:06:16.225Z,17.30
2019-05-06T13:08:58.934Z,17.20
2019-05-06T13:11:20.971Z,17.30
2019-05-06T13:14:00.163Z,17.30
2019-05-06T13:16:26.085Z,17.30
2019-05-06T13:18:57.407Z,17.40
2019-05-06T13:21:28.724Z,17.50
2019-05-06T13:24:04.796Z,17.50
2019-05-06T13:26:36.100Z,17.50
2019-05-06T13:29:13.137Z,17.50
2019-05-06T13:31:45.181Z,17.50
2019-05-06T13:34:18.119Z,17.50
2019-05-06T13:36:49.523Z,17.50
2019-05-06T13:39:23.489Z,17.60
2019-05-06T13:41:54.048Z,17.60
2019-05-06T13:44:25.392Z,17.70
2019-05-06T13:46:56.834Z,17.60
2019-05-06T13:49:52.182Z,17.40
2019-05-06T13:52:26.969Z,17.30
2019-05-06T13:54:58.372Z,17.20
2019-05-06T13:57:32.197Z,17.20
2019-05-06T14:00:03.868Z,17.10
2019-05-06T14:02:53.131Z,17.00
2019-05-06T14:05:24.763Z,16.90
2019-05-06T14:11:08.554Z,16.90
2019-05-06T14:13:42.051Z,16.80
2019-05-06T14:16:13.387Z,16.80
2019-05-06T14:18:45.155Z,16.80
2019-05-06T14:21:16.694Z,16.80
2019-05-06T14:23:48.296Z,16.80
2019-05-06T14:26:26.108Z,16.90
2019-05-06T14:29:02.327Z,17.00
2019-05-06T14:31:36.882Z,17.10
2019-05-06T14:34:08.334Z,17.10
2019-05-06T14:36:43.354Z,17.20
2019-05-06T14:39:23.904Z,17.20
2019-05-06T14:41:56.410Z,17.20
2019-05-06T14:44:28.317Z,17.20
2019-05-06T14:47:28.124Z,17.20
2019-05-06T14:49:59.497Z,17.10
2019-05-06T14:52:33.366Z,17.00
2019-05-06T14:55:16.303Z,17.00
2019-05-06T14:57:47.891Z,16.90
2019-05-06T15:00:22.909Z,16.70
2019-05-06T15:02:54.195Z,16.70
2019-05-06T15:05:25.807Z,16.70
2019-05-06T15:07:57.253Z,16.70
2019-05-06T15:10:28.487Z,16.70
2019-05-06T15:13:01.984Z,16.80
2019-05-06T15:15:33.060Z,16.80
2019-05-06T15:18:04.402Z,16.80
2019-05-06T15:20:35.998Z,16.80
2019-05-06T15:23:07.387Z,16.90
2019-05-06T15:25:39.014Z,16.90
2019-05-06T15:28:10.397Z,16.90
2019-05-06T15:30:49.276Z,16.90
2019-05-06T15:33:23.336Z,16.90
2019-05-06T15:36:12.835Z,16.90
2019-05-06T15:38:44.357Z,16.80
2019-05-06T15:41:15.647Z,16.70
2019-05-06T15:43:47.443Z,16.70
2019-05-06T15:46:18.703Z,16.60
2019-05-06T15:48:52.686Z,16.60
2019-05-06T15:51:34.631Z,16.50
2019-05-06T15:54:06.603Z,16.50
2019-05-06T15:56:37.926Z,16.40
2019-05-06T15:59:09.246Z,16.30
2019-05-06T16:01:42.637Z,16.20
2019-05-06T16:04:15.437Z,16.20
2019-05-06T16:06:47.082Z,16.10
2019-05-06T16:09:18.622Z,16.10
2019-05-06T16:11:49.904Z,16.00
2019-05-06T16:14:22.983Z,15.90
2019-05-06T16:16:54.732Z,15.80
2019-05-06T16:19:26.263Z,15.80
2019-05-06T16:21:57.606Z,15.80
2019-05-06T16:24:48.293Z,15.80
2019-05-06T16:27:19.895Z,15.80
2019-05-06T16:29:52.995Z,15.80
2019-05-06T16:32:25.880Z,15.70
2019-05-06T16:34:57.336Z,15.70
2019-05-06T16:37:30.125Z,15.60
2019-05-06T16:40:02.794Z,15.50
2019-05-06T16:42:36.590Z,15.40
2019-05-06T16:45:08.857Z,15.30
2019-05-06T16:47:44.410Z,15.20
2019-05-06T16:50:15.008Z,15.20
2019-05-06T16:52:46.800Z,15.20
2019-05-06T16:55:24.535Z,15.20
2019-05-06T16:58:02.540Z,15.20
2019-05-06T17:00:35.716Z,15.30
2019-05-06T17:03:18.404Z,15.30
2019-05-06T17:06:13.769Z,15.40
2019-05-06T17:08:43.634Z,15.50
2019-05-06T17:11:26.813Z,15.60
2019-05-06T17:13:48.223Z,15.60
2019-05-06T17:16:21.939Z,15.60
2019-05-06T17:18:56.361Z,15.50
2019-05-06T17:21:25.906Z,15.40
2019-05-06T17:23:57.429Z,15.20
2019-05-06T17:26:29.069Z,15.10
2019-05-06T17:29:11.053Z,14.90
2019-05-06T17:31:52.786Z,14.70
2019-05-06T17:34:29.221Z,14.50
2019-05-06T17:37:06.715Z,14.40
2019-05-06T17:39:39.403Z,14.20
2019-05-06T17:42:13.683Z,14.00
2019-05-06T17:44:45.020Z,13.90
2019-05-06T17:47:35.512Z,13.80
2019-05-06T17:50:07.184Z,13.70
2019-05-06T17:52:41.977Z,13.60
2019-05-06T17:55:12.655Z,13.50
2019-05-06T17:57:44.488Z,13.40
2019-05-06T18:00:16.853Z,13.30
2019-05-06T18:02:50.063Z,13.20
2019-05-06T18:05:22.841Z,13.10
2019-05-06T18:07:54.672Z,13.00
2019-05-06T18:10:26.188Z,12.90
2019-05-06T18:12:59.814Z,12.70
2019-05-06T18:15:32.208Z,12.60
2019-05-06T18:18:04.608Z,12.50
2019-05-06T18:20:36.179Z,12.40
2019-05-06T18:23:07.789Z,12.30
2019-05-06T18:25:43.025Z,12.20
2019-05-06T18:28:14.407Z,12.10
2019-05-06T18:30:46.156Z,12.00
2019-05-06T18:33:17.644Z,11.90
2019-05-06T18:35:50.652Z,11.80
2019-05-06T18:38:24.790Z,11.70
2019-05-06T18:40:56.085Z,11.60
2019-05-06T18:43:27.483Z,11.50
2019-05-06T18:45:58.950Z,11.50
2019-05-06T18:48:32.855Z,11.40
2019-05-06T18:51:04.232Z,11.40
2019-05-06T18:53:35.758Z,11.40
2019-05-06T18:56:07.279Z,11.40
2019-05-06T18:58:42.743Z,11.50
2019-05-06T19:01:13.723Z,11.50
2019-05-06T19:04:04.433Z,11.50
2019-05-06T19:06:36.027Z,11.50
2019-05-06T19:09:39.435Z,11.50
2019-05-06T19:12:12.749Z,11.50
2019-05-06T19:14:44.903Z,11.50
2019-05-06T19:17:16.566Z,11.50
2019-05-06T19:19:48.366Z,11.50
2019-05-06T19:22:20.062Z,11.50
2019-05-06T19:24:52.195Z,11.60
2019-05-06T19:27:24.927Z,11.50
2019-05-06T19:29:57.898Z,11.60
2019-05-06T19:32:29.600Z,11.60
2019-05-06T19:35:02.744Z,11.60
2019-05-06T19:37:34.797Z,11.60
2019-05-06T19:40:06.728Z,11.60
2019-05-06T19:42:47.031Z,11.60
2019-05-06T19:45:13.060Z,11.50
2019-05-06T19:47:44.728Z,11.50
2019-05-06T19:50:16.349Z,11.50
2019-05-06T19:52:47.953Z,11.50
2019-05-06T19:55:19.631Z,11.50
2019-05-06T19:57:52.599Z,11.50
2019-05-06T20:00:26.036Z,11.60
2019-05-06T20:02:57.474Z,11.50
2019-05-06T20:05:38.257Z,11.50
2019-05-06T20:08:26.314Z,11.50
2019-05-06T20:11:08.274Z,11.50
2019-05-06T20:13:39.906Z,11.50
2019-05-06T20:16:12.436Z,11.50
2019-05-06T20:18:44.613Z,11.50
2019-05-06T20:21:16.108Z,11.50
2019-05-06T20:23:47.949Z,11.50
2019-05-06T20:26:21.448Z,11.40
2019-05-06T20:28:53.109Z,11.40
2019-05-06T20:31:25.962Z,11.30
2019-05-06T20:33:57.703Z,11.30
2019-05-06T20:36:29.161Z,11.20
2019-05-06T20:39:02.513Z,11.10
2019-05-06T20:41:36.172Z,11.00
2019-05-06T20:44:08.239Z,10.90
2019-05-06T20:46:40.245Z,10.80
2019-05-06T20:49:14.509Z,10.80
2019-05-06T20:51:46.100Z,10.70
2019-05-06T20:54:20.507Z,10.70
2019-05-06T20:56:53.047Z,10.60
2019-05-06T20:59:24.866Z,10.60
2019-05-06T21:01:56.682Z,10.60
2019-05-06T21:04:27.990Z,10.50
2019-05-06T21:06:59.979Z,10.50
2019-05-06T21:09:32.079Z,10.50
2019-05-06T21:12:04.191Z,10.60
2019-05-06T21:14:35.884Z,10.60
2019-05-06T21:17:07.462Z,10.60
2019-05-06T21:19:38.948Z,10.60
2019-05-06T21:22:10.445Z,10.60
2019-05-06T21:24:43.076Z,10.70
2019-05-06T21:27:14.877Z,10.70
2019-05-06T21:29:46.494Z,10.60
2019-05-06T21:32:18.799Z,10.60
2019-05-06T21:34:52.454Z,10.60
2019-05-06T21:37:24.361Z,10.60
2019-05-06T21:39:56.989Z,10.60
2019-05-06T21:42:28.829Z,10.60
2019-05-06T21:45:03.092Z,10.60
2019-05-06T21:47:34.169Z,10.60
2019-05-06T21:50:05.946Z,10.50
2019-05-06T21:52:39.869Z,10.50
2019-05-06T21:55:13.110Z,10.50
2019-05-06T21:57:44.400Z,10.50
2019-05-06T22:00:17.257Z,10.40
2019-05-06T22:02:52.837Z,10.40
2019-05-06T22:05:24.050Z,10.40
2019-05-06T22:07:55.616Z,10.40
2019-05-06T22:10:27.160Z,10.40
2019-05-06T22:12:59.014Z,10.30
2019-05-06T22:15:32.310Z,10.30
2019-05-06T22:18:03.812Z,10.20
2019-05-06T22:20:54.340Z,10.20
2019-05-06T22:23:25.771Z,10.20
2019-05-06T22:26:08.604Z,10.20
2019-05-06T22:28:31.898Z,10.10
2019-05-06T22:31:04.180Z,10.10
2019-05-06T22:33:35.889Z,10.10
2019-05-06T22:36:08.404Z,10.10
2019-05-06T22:38:41.956Z,10.10
2019-05-06T22:41:13.238Z,10.10
2019-05-06T22:43:44.948Z,10.00
2019-05-06T22:46:18.239Z,10.00
2019-05-06T22:48:49.523Z,10.00
2019-05-06T22:51:22.875Z,10.00
2019-05-06T22:53:54.534Z,9.90
2019-05-06T22:56:26.111Z,9.90
2019-05-06T22:58:57.517Z,9.80
2019-05-06T23:01:57.096Z,9.80
2019-05-06T23:04:32.313Z,9.80
2019-05-06T23:07:04.828Z,9.70
2019-05-06T23:09:37.546Z,9.80
2019-05-06T23:12:08.960Z,9.70
2019-05-06T23:14:42.052Z,9.70
2019-05-06T23:17:13.890Z,9.70
2019-05-06T23:19:45.700Z,9.70
2019-05-06T23:22:17.227Z,9.70
2019-05-06T23:24:49.715Z,9.70
2019-05-06T23:27:23.253Z,9.60
2019-05-06T23:29:54.460Z,9.60
2019-05-06T23:32:26.865Z,9.50
2019-05-06T23:34:58.228Z,9.50
2019-05-06T23:37:28.540Z,9.40
2019-05-06T23:40:39.012Z,9.40
2019-05-06T23:43:46.626Z,9.30
2019-05-06T23:46:54.289Z,9.20
2019-05-06T23:50:03.537Z,9.20
2019-05-06T23:53:12.641Z,9.10
2019-05-06T23:56:20.126Z,9.00
2019-05-06T23:58:52.424Z,8.90
